createdAt,value
2023-02-03T00:01:33.433Z,84.73
2023-02-03T00:04:00.104Z,84.57
2023-02-03T00:06:27.057Z,84.89
2023-02-03T00:08:57.008Z,85.22
2023-02-03T00:11:23.603Z,84.71
2023-02-03T00:13:50.352Z,84.92
2023-02-03T00:16:16.976Z,84.70
2023-02-03T00:18:43.499Z,84.94
2023-02-03T00:21:10.053Z,84.67
2023-02-03T00:23:36.744Z,84.73
2023-02-03T00:26:11.133Z,85.36
2023-02-03T00:28:37.922Z,85.23
2023-02-03T00:31:04.900Z,85.38
2023-02-03T00:33:33.876Z,84.77
2023-02-03T00:36:06.143Z,85.41
2023-02-03T00:38:32.653Z,84.93
2023-02-03T00:40:59.249Z,84.65
2023-02-03T00:43:26.312Z,84.80
2023-02-03T00:45:52.913Z,85.11
2023-02-03T00:48:19.780Z,85.08
2023-02-03T00:50:47.948Z,84.37
2023-02-03T00:53:14.893Z,85.05
2023-02-03T00:55:43.442Z,85.17
2023-02-03T00:58:10.103Z,84.97
2023-02-03T01:00:36.640Z,84.88
2023-02-03T01:03:03.482Z,84.62
2023-02-03T01:05:30.138Z,85.09
2023-02-03T01:07:56.662Z,84.48
2023-02-03T01:10:23.151Z,85.03
2023-02-03T01:12:49.795Z,85.12
2023-02-03T01:15:16.499Z,84.47
2023-02-03T01:17:42.982Z,84.75
2023-02-03T01:20:12.313Z,84.70
2023-02-03T01:22:38.826Z,84.68
2023-02-03T01:25:06.188Z,84.80
2023-02-03T01:27:33.691Z,84.47
2023-02-03T01:30:00.369Z,84.70
2023-02-03T01:32:27.432Z,84.24
2023-02-03T01:34:54.081Z,84.09
2023-02-03T01:37:20.629Z,84.36
2023-02-03T01:39:47.177Z,84.61
2023-02-03T01:42:15.747Z,84.82
2023-02-03T01:44:42.252Z,84.44
2023-02-03T01:47:28.157Z,84.65
2023-02-03T01:50:00.341Z,84.43
2023-02-03T01:52:28.077Z,83.86
2023-02-03T01:54:57.019Z,84.05
2023-02-03T01:57:30.233Z,84.26
2023-02-03T01:59:59.767Z,84.44
2023-02-03T02:02:26.741Z,84.46
2023-02-03T02:05:21.827Z,83.89
2023-02-03T02:07:48.910Z,84.12
2023-02-03T02:10:15.816Z,83.87
2023-02-03T02:12:42.711Z,84.08
2023-02-03T02:15:10.208Z,83.53
2023-02-03T02:17:46.511Z,83.41
2023-02-03T02:20:41.057Z,83.29
2023-02-03T02:23:34.883Z,83.22
2023-02-03T02:26:14.299Z,83.31
2023-02-03T02:29:15.331Z,83.42
2023-02-03T02:31:54.057Z,83.41
2023-02-03T02:34:44.372Z,83.74
2023-02-03T02:37:41.725Z,84.00
2023-02-03T02:40:31.171Z,83.58
2023-02-03T02:43:16.594Z,83.62
2023-02-03T02:45:55.137Z,83.50
2023-02-03T02:48:36.269Z,83.45
2023-02-03T02:51:05.361Z,83.30
2023-02-03T02:53:38.448Z,83.13
2023-02-03T02:56:09.355Z,82.75
2023-02-03T02:58:41.147Z,83.64
2023-02-03T03:01:09.931Z,83.39
2023-02-03T03:03:40.652Z,83.46
2023-02-03T03:06:11.634Z,82.72
2023-02-03T03:08:47.639Z,82.70
2023-02-03T03:11:14.925Z,82.90
2023-02-03T03:13:56.010Z,83.08
2023-02-03T03:16:25.880Z,83.01
2023-02-03T03:19:07.918Z,82.27
2023-02-03T03:21:40.150Z,82.08
2023-02-03T03:24:12.422Z,82.19
2023-02-03T03:27:01.160Z,82.54
2023-02-03T03:29:32.668Z,82.66
2023-02-03T03:31:59.242Z,81.96
2023-02-03T03:34:26.142Z,82.51
2023-02-03T03:37:27.159Z,82.26
2023-02-03T03:39:59.074Z,82.06
2023-02-03T03:42:50.748Z,81.97
2023-02-03T03:45:24.549Z,81.89
2023-02-03T03:48:13.331Z,82.01
2023-02-03T03:50:46.904Z,82.23
2023-02-03T03:53:17.094Z,82.34
2023-02-03T03:55:47.393Z,81.61
2023-02-03T03:58:19.685Z,82.10
2023-02-03T04:00:47.401Z,82.55
2023-02-03T04:03:21.281Z,82.36
2023-02-03T04:05:48.017Z,82.44
2023-02-03T04:08:14.546Z,81.67
2023-02-03T04:10:43.128Z,81.75
2023-02-03T04:13:11.725Z,81.71
2023-02-03T04:15:38.375Z,82.22
2023-02-03T04:18:05.536Z,82.15
2023-02-03T04:20:33.230Z,81.50
2023-02-03T04:23:00.176Z,81.52
2023-02-03T04:25:26.890Z,81.33
2023-02-03T04:27:53.505Z,81.79
2023-02-03T04:30:20.073Z,81.10
2023-02-03T04:32:47.249Z,81.14
2023-02-03T04:35:14.447Z,81.51
2023-02-03T04:37:41.525Z,80.59
2023-02-03T04:40:09.956Z,81.10
2023-02-03T04:42:38.745Z,80.60
2023-02-03T04:45:07.396Z,80.40
2023-02-03T04:47:34.053Z,81.14
2023-02-03T04:50:00.837Z,80.54
2023-02-03T04:52:27.420Z,80.45
2023-02-03T04:54:54.113Z,80.83
2023-02-03T04:57:20.664Z,80.91
2023-02-03T04:59:47.179Z,80.30
2023-02-03T05:02:13.935Z,79.99
2023-02-03T05:04:40.459Z,80.38
2023-02-03T05:07:06.991Z,80.58
2023-02-03T05:09:33.555Z,80.12
2023-02-03T05:12:00.053Z,80.92
2023-02-03T05:14:26.561Z,79.89
2023-02-03T05:16:53.330Z,80.62
2023-02-03T05:19:20.117Z,79.96
2023-02-03T05:21:46.674Z,80.28
2023-02-03T05:24:13.181Z,80.37
2023-02-03T05:26:39.718Z,79.87
2023-02-03T05:29:06.314Z,79.94
2023-02-03T05:31:33.652Z,80.29
2023-02-03T05:34:00.262Z,80.12
2023-02-03T05:36:28.058Z,79.53
2023-02-03T05:38:54.603Z,80.49
2023-02-03T05:41:39.515Z,79.61
2023-02-03T05:44:06.101Z,80.25
2023-02-03T05:46:32.610Z,80.48
2023-02-03T05:48:59.277Z,79.66
2023-02-03T05:51:25.835Z,79.96
2023-02-03T05:53:53.783Z,80.29
2023-02-03T05:56:20.313Z,79.99
2023-02-03T05:58:47.029Z,79.69
2023-02-03T06:01:13.642Z,80.06
2023-02-03T06:03:40.376Z,79.88
2023-02-03T06:06:07.108Z,79.77
2023-02-03T06:08:33.615Z,80.17
2023-02-03T06:11:00.940Z,80.27
2023-02-03T06:13:28.132Z,79.73
2023-02-03T06:15:54.680Z,80.69
2023-02-03T06:18:21.298Z,79.77
2023-02-03T06:20:47.826Z,80.13
2023-02-03T06:23:14.699Z,80.38
2023-02-03T06:25:41.181Z,80.26
2023-02-03T06:28:07.889Z,80.42
2023-02-03T06:30:34.618Z,80.69
2023-02-03T06:33:01.131Z,80.42
2023-02-03T06:35:27.745Z,79.87
2023-02-03T06:37:54.415Z,80.23
2023-02-03T06:40:21.088Z,80.14
2023-02-03T06:42:48.545Z,80.85
2023-02-03T06:45:15.631Z,80.41
2023-02-03T06:47:43.461Z,80.08
2023-02-03T06:50:16.591Z,80.22
2023-02-03T06:52:43.364Z,80.79
2023-02-03T06:55:10.655Z,80.93
2023-02-03T06:57:43.789Z,80.16
2023-02-03T07:00:18.755Z,80.43
2023-02-03T07:02:46.756Z,80.91
2023-02-03T07:05:13.594Z,80.45
2023-02-03T07:07:40.158Z,80.36
2023-02-03T07:10:07.369Z,80.23
2023-02-03T07:12:34.033Z,80.82
2023-02-03T07:15:00.569Z,80.42
2023-02-03T07:17:27.186Z,80.41
2023-02-03T07:19:53.677Z,80.99
2023-02-03T07:22:20.251Z,80.89
2023-02-03T07:24:46.829Z,80.91
2023-02-03T07:27:13.319Z,80.62
2023-02-03T07:29:39.947Z,80.69
2023-02-03T07:32:06.831Z,81.05
2023-02-03T07:34:33.455Z,80.51
2023-02-03T07:36:59.951Z,80.93
2023-02-03T07:39:26.794Z,81.96
2023-02-03T07:41:53.405Z,81.84
2023-02-03T07:44:19.915Z,81.80
2023-02-03T07:46:46.596Z,82.12
2023-02-03T07:49:13.949Z,82.67
2023-02-03T07:51:40.999Z,82.94
2023-02-03T07:54:07.689Z,82.45
2023-02-03T07:56:35.391Z,83.23
2023-02-03T07:59:01.988Z,83.18
2023-02-03T08:01:28.623Z,83.80
2023-02-03T08:03:55.430Z,83.09
2023-02-03T08:06:22.786Z,83.29
2023-02-03T08:08:49.349Z,82.47
2023-02-03T08:11:15.832Z,83.04
2023-02-03T08:13:42.309Z,82.52
2023-02-03T08:16:08.918Z,82.88
2023-02-03T08:18:35.511Z,83.14
2023-02-03T08:21:04.081Z,83.25
2023-02-03T08:23:31.544Z,82.37
2023-02-03T08:25:58.203Z,82.08
2023-02-03T08:28:25.008Z,80.58
2023-02-03T08:30:51.938Z,82.16
2023-02-03T08:33:18.958Z,81.38
2023-02-03T08:35:47.697Z,81.58
2023-02-03T08:38:14.608Z,81.37
2023-02-03T08:40:41.297Z,81.31
2023-02-03T08:43:08.087Z,81.21
2023-02-03T08:45:34.745Z,81.05
2023-02-03T08:48:01.585Z,81.12
2023-02-03T08:50:28.659Z,80.37
2023-02-03T08:52:58.154Z,81.12
2023-02-03T08:55:25.160Z,80.01
2023-02-03T08:57:51.797Z,80.04
2023-02-03T09:00:18.983Z,80.26
2023-02-03T09:02:45.748Z,80.43
2023-02-03T09:05:12.719Z,79.88
2023-02-03T09:07:39.836Z,79.24
2023-02-03T09:10:06.831Z,79.76
2023-02-03T09:12:33.303Z,79.12
2023-02-03T09:14:59.954Z,79.35
2023-02-03T09:17:26.635Z,79.37
2023-02-03T09:19:53.406Z,78.64
2023-02-03T09:22:19.951Z,79.26
2023-02-03T09:24:46.704Z,78.31
2023-02-03T09:27:13.390Z,78.66
2023-02-03T09:29:40.028Z,78.43
2023-02-03T09:32:09.156Z,78.09
2023-02-03T09:34:41.265Z,78.21
2023-02-03T09:37:08.566Z,77.37
2023-02-03T09:39:35.258Z,77.66
2023-02-03T09:42:25.370Z,78.12
2023-02-03T09:45:04.265Z,77.80
2023-02-03T09:47:39.509Z,78.00
2023-02-03T09:50:12.728Z,78.02
2023-02-03T09:52:41.520Z,77.59
2023-02-03T09:55:39.619Z,77.59
2023-02-03T09:58:23.246Z,77.43
2023-02-03T10:00:59.011Z,77.55
2023-02-03T10:03:37.043Z,76.70
2023-02-03T10:06:29.037Z,77.40
2023-02-03T10:09:04.984Z,76.92
2023-02-03T10:12:10.082Z,77.09
2023-02-03T10:15:20.675Z,76.57
2023-02-03T10:17:54.657Z,76.72
2023-02-03T10:20:30.852Z,76.74
2023-02-03T10:23:04.855Z,76.87
2023-02-03T10:25:49.682Z,76.53
2023-02-03T10:28:24.531Z,76.31
2023-02-03T10:31:01.238Z,76.38
2023-02-03T10:33:30.663Z,76.88
2023-02-03T10:36:21.489Z,76.09
2023-02-03T10:39:07.491Z,76.23
2023-02-03T10:41:34.507Z,76.27
2023-02-03T10:44:05.832Z,75.75
2023-02-03T10:46:36.082Z,75.89
2023-02-03T10:49:02.849Z,76.04
2023-02-03T10:51:38.781Z,76.12
2023-02-03T10:54:25.393Z,76.16
2023-02-03T10:56:52.178Z,75.46
2023-02-03T10:59:31.322Z,75.72
2023-02-03T11:01:58.202Z,76.02
2023-02-03T11:04:31.978Z,75.35
2023-02-03T11:07:06.353Z,76.01
2023-02-03T11:09:42.833Z,75.54
2023-02-03T11:12:15.832Z,75.57
2023-02-03T11:14:47.033Z,75.74
2023-02-03T11:17:26.987Z,75.76
2023-02-03T11:19:56.771Z,75.73
2023-02-03T11:22:31.460Z,75.41
2023-02-03T11:24:59.791Z,75.59
2023-02-03T11:27:30.277Z,75.63
2023-02-03T11:30:20.196Z,75.51
2023-02-03T11:32:48.647Z,76.03
2023-02-03T11:35:22.901Z,76.09
2023-02-03T11:37:54.566Z,75.79
2023-02-03T11:40:21.084Z,75.30
2023-02-03T11:43:15.881Z,75.75
2023-02-03T11:45:46.794Z,75.74
2023-02-03T11:48:36.000Z,75.93
2023-02-03T11:51:25.345Z,75.59
2023-02-03T11:54:36.143Z,76.04
2023-02-03T11:57:34.997Z,75.49
2023-02-03T12:00:17.089Z,76.07
2023-02-03T12:03:29.712Z,76.21
2023-02-03T12:06:09.317Z,76.02
2023-02-03T12:09:08.040Z,76.08
2023-02-03T12:11:49.674Z,76.64
2023-02-03T12:14:39.112Z,77.21
2023-02-03T12:17:17.353Z,78.28
2023-02-03T12:20:05.398Z,78.44
2023-02-03T12:22:51.125Z,78.14
2023-02-03T12:25:40.290Z,78.60
2023-02-03T12:28:38.635Z,79.01
2023-02-03T12:31:16.071Z,80.10
2023-02-03T12:33:50.735Z,80.16
2023-02-03T12:36:26.615Z,81.04
2023-02-03T12:38:59.453Z,81.20
2023-02-03T12:41:38.434Z,80.92
2023-02-03T12:44:15.131Z,81.58
2023-02-03T12:46:48.273Z,82.46
2023-02-03T12:49:38.942Z,82.08
2023-02-03T12:52:17.672Z,82.63
2023-02-03T12:55:03.011Z,82.71
2023-02-03T12:57:55.073Z,82.84
2023-02-03T13:00:37.132Z,83.23
2023-02-03T13:03:29.884Z,83.11
2023-02-03T13:06:12.284Z,83.23
2023-02-03T13:08:44.140Z,82.82
2023-02-03T13:11:37.097Z,82.82
2023-02-03T13:14:28.119Z,82.26
2023-02-03T13:17:05.890Z,81.88
2023-02-03T13:19:42.863Z,80.94
2023-02-03T13:22:14.917Z,81.77
2023-02-03T13:24:49.231Z,81.22
2023-02-03T13:27:24.741Z,80.98
2023-02-03T13:30:15.331Z,80.32
2023-02-03T13:33:13.817Z,80.54
2023-02-03T13:35:55.136Z,80.03
2023-02-03T13:38:31.200Z,79.02
2023-02-03T13:41:20.806Z,77.73
2023-02-03T13:43:51.671Z,77.70
2023-02-03T13:46:32.464Z,77.41
2023-02-03T13:49:01.734Z,77.19
2023-02-03T13:51:34.923Z,76.61
2023-02-03T13:54:07.258Z,76.87
2023-02-03T13:56:34.968Z,75.46
2023-02-03T13:59:13.586Z,75.19
2023-02-03T14:01:41.605Z,75.23
2023-02-03T14:04:29.449Z,75.33
2023-02-03T14:06:58.861Z,75.16
2023-02-03T14:09:31.237Z,75.28
2023-02-03T14:12:29.919Z,73.67
2023-02-03T14:15:05.144Z,74.39
2023-02-03T14:17:34.416Z,73.60
2023-02-03T14:20:05.633Z,73.20
2023-02-03T14:22:32.661Z,73.51
2023-02-03T14:25:06.659Z,73.43
2023-02-03T14:27:33.477Z,73.48
2023-02-03T14:30:08.053Z,72.27
2023-02-03T14:32:58.090Z,72.85
2023-02-03T14:35:35.080Z,72.33
2023-02-03T14:38:08.515Z,72.27
2023-02-03T14:40:56.079Z,72.13
2023-02-03T14:43:38.127Z,71.14
2023-02-03T14:46:39.423Z,71.93
2023-02-03T14:49:09.182Z,72.03
2023-02-03T14:51:57.344Z,71.15
2023-02-03T14:54:54.215Z,70.36
2023-02-03T14:57:26.775Z,71.10
2023-02-03T14:59:58.098Z,70.31
2023-02-03T15:02:28.660Z,71.30
2023-02-03T15:05:15.000Z,70.83
2023-02-03T15:07:49.659Z,70.59
2023-02-03T15:10:17.925Z,70.62
2023-02-03T15:12:50.310Z,69.75
2023-02-03T15:15:29.110Z,70.32
2023-02-03T15:17:59.564Z,70.28
2023-02-03T15:20:41.501Z,69.80
2023-02-03T15:23:25.076Z,69.92
2023-02-03T15:26:02.300Z,70.00
2023-02-03T15:28:37.973Z,69.79
2023-02-03T15:31:27.959Z,70.23
2023-02-03T15:33:58.956Z,70.25
2023-02-03T15:36:40.260Z,69.86
2023-02-03T15:39:26.083Z,69.59
2023-02-03T15:41:59.919Z,70.19
2023-02-03T15:44:35.881Z,69.69
2023-02-03T15:47:23.735Z,70.36
2023-02-03T15:50:00.526Z,70.30
2023-02-03T15:52:39.729Z,70.89
2023-02-03T15:55:24.717Z,70.94
2023-02-03T15:57:51.979Z,71.24
2023-02-03T16:00:32.990Z,72.00
2023-02-03T16:03:03.039Z,71.68
2023-02-03T16:05:41.998Z,72.20
2023-02-03T16:08:43.425Z,72.65
2023-02-03T16:11:22.352Z,72.49
2023-02-03T16:13:49.052Z,72.69
2023-02-03T16:16:35.717Z,73.02
2023-02-03T16:19:31.534Z,72.90
2023-02-03T16:25:34.454Z,73.16
2023-02-03T16:28:27.122Z,72.81
2023-02-03T16:31:30.326Z,72.46
2023-02-03T16:34:17.377Z,73.05
2023-02-03T16:37:03.465Z,73.14
2023-02-03T16:39:49.298Z,72.77
2023-02-03T16:42:37.171Z,73.19
2023-02-03T16:45:36.931Z,73.03
2023-02-03T16:48:23.278Z,72.99
2023-02-03T16:50:54.292Z,73.42
2023-02-03T16:53:26.312Z,72.89
2023-02-03T16:55:56.425Z,72.66
2023-02-03T16:58:23.488Z,72.72
2023-02-03T17:00:55.229Z,72.77
2023-02-03T17:03:24.585Z,72.66
2023-02-03T17:05:53.976Z,72.80
2023-02-03T17:08:26.691Z,72.62
2023-02-03T17:10:55.658Z,72.53
2023-02-03T17:13:24.642Z,72.64
2023-02-03T17:15:58.527Z,72.52
2023-02-03T17:18:25.319Z,72.44
2023-02-03T17:20:58.958Z,72.49
2023-02-03T17:23:26.570Z,72.73
2023-02-03T17:26:01.039Z,72.40
2023-02-03T17:28:28.257Z,72.40
2023-02-03T17:31:00.604Z,72.90
2023-02-03T17:33:33.333Z,72.94
2023-02-03T17:36:03.204Z,72.92
2023-02-03T17:38:30.684Z,73.04
2023-02-03T17:54:48.693Z,73.12
2023-02-03T17:57:15.568Z,72.62
2023-02-03T17:59:42.421Z,72.96
2023-02-03T18:02:13.126Z,73.09
2023-02-03T18:04:40.044Z,73.21
2023-02-03T18:07:09.802Z,73.08
2023-02-03T18:09:36.588Z,72.98
2023-02-03T18:12:03.459Z,72.57
2023-02-03T18:14:30.351Z,72.96
2023-02-03T18:16:56.956Z,73.37
2023-02-03T18:19:23.557Z,73.00
2023-02-03T18:21:51.361Z,72.98
2023-02-03T18:24:19.819Z,72.59
2023-02-03T18:26:50.778Z,72.51
2023-02-03T18:29:18.533Z,72.67
2023-02-03T18:31:46.079Z,73.11
2023-02-03T18:34:13.268Z,71.78
2023-02-03T18:39:08.621Z,71.38
2023-02-03T18:41:38.770Z,72.20
2023-02-03T18:44:05.648Z,71.40
2023-02-03T18:46:33.627Z,71.85
2023-02-03T18:49:00.320Z,71.59
2023-02-03T18:51:27.581Z,71.59
2023-02-03T18:53:58.812Z,71.36
2023-02-03T18:56:28.299Z,71.39
2023-02-03T18:58:55.224Z,71.22
2023-02-03T19:01:25.081Z,71.50
2023-02-03T19:03:52.225Z,71.21
2023-02-03T19:06:18.874Z,71.62
2023-02-03T19:08:46.871Z,71.31
2023-02-03T19:11:14.862Z,71.19
2023-02-03T19:13:42.380Z,71.52
2023-02-03T19:16:11.762Z,71.23
2023-02-03T19:18:38.434Z,71.62
2023-02-03T19:21:05.211Z,71.79
2023-02-03T19:23:32.205Z,72.09
2023-02-03T19:25:58.840Z,71.87
2023-02-03T19:28:30.959Z,71.93
2023-02-03T19:31:08.373Z,71.83
2023-02-03T19:33:36.343Z,71.65
2023-02-03T19:36:04.127Z,72.09
2023-02-03T19:38:30.930Z,72.01
2023-02-03T19:40:57.532Z,72.17
2023-02-03T19:43:24.813Z,72.20
2023-02-03T19:45:51.822Z,72.02
2023-02-03T19:48:18.937Z,72.96
2023-02-03T19:50:48.118Z,72.19
2023-02-03T19:53:15.921Z,72.32
2023-02-03T19:55:43.594Z,72.44
2023-02-03T20:00:37.252Z,73.07
2023-02-03T20:03:03.929Z,73.22
2023-02-03T20:05:30.627Z,72.03
2023-02-03T20:07:57.173Z,73.07
2023-02-03T20:10:26.426Z,72.84
2023-02-03T20:12:54.444Z,72.75
2023-02-03T20:15:21.800Z,73.00
2023-02-03T20:17:48.761Z,72.76
2023-02-03T20:20:18.128Z,72.95
2023-02-03T20:22:46.031Z,72.71
2023-02-03T20:25:12.719Z,73.16
2023-02-03T20:27:39.554Z,73.02
2023-02-03T20:30:06.528Z,73.11
2023-02-03T20:32:33.289Z,73.23
2023-02-03T20:34:59.994Z,73.46
2023-02-03T20:37:26.586Z,73.23
2023-02-03T20:39:53.343Z,73.45
2023-02-03T20:42:20.055Z,72.92
2023-02-03T20:44:46.865Z,72.58
2023-02-03T20:47:18.050Z,72.96
2023-02-03T20:49:45.824Z,72.53
2023-02-03T20:52:20.895Z,71.35
2023-02-03T20:54:48.211Z,72.49
2023-02-03T20:57:17.462Z,72.32
2023-02-03T20:59:47.162Z,72.57
2023-02-03T21:02:19.650Z,72.20
2023-02-03T21:04:58.225Z,70.74
2023-02-03T21:07:30.990Z,71.31
2023-02-03T21:10:03.387Z,70.36
2023-02-03T21:12:30.074Z,69.96
2023-02-03T21:14:57.225Z,70.41
2023-02-03T21:17:26.479Z,70.25
2023-02-03T21:19:54.584Z,69.35
2023-02-03T21:22:25.516Z,69.88
2023-02-03T21:24:57.612Z,70.91
2023-02-03T21:27:24.429Z,68.51
2023-02-03T21:29:52.005Z,69.34
2023-02-03T21:32:18.775Z,68.75
2023-02-03T21:34:47.799Z,68.61
2023-02-03T21:37:20.014Z,68.99
2023-02-03T21:39:48.009Z,68.73
2023-02-03T21:42:41.423Z,69.37
2023-02-03T21:45:39.036Z,69.02
2023-02-03T21:48:29.272Z,68.68
2023-02-03T21:50:59.742Z,68.55
2023-02-03T21:53:32.921Z,68.33
2023-02-03T21:56:16.134Z,68.42
2023-02-03T21:58:44.116Z,68.84
2023-02-03T22:01:17.030Z,68.38
2023-02-03T22:03:48.703Z,68.47
2023-02-03T22:06:18.642Z,67.67
2023-02-03T22:08:48.066Z,67.59
2023-02-03T22:11:15.901Z,67.43
2023-02-03T22:13:43.110Z,68.02
2023-02-03T22:16:10.286Z,68.44
2023-02-03T22:18:36.912Z,69.10
2023-02-03T22:21:03.933Z,67.15
2023-02-03T22:23:30.587Z,67.49
2023-02-03T22:25:57.249Z,67.30
2023-02-03T22:28:23.859Z,67.27
2023-02-03T22:30:50.614Z,67.29
2023-02-03T22:33:17.516Z,66.89
2023-02-03T22:35:44.344Z,67.41
2023-02-03T22:38:12.409Z,67.53
2023-02-03T22:40:39.076Z,68.13
2023-02-03T22:43:05.556Z,68.25
2023-02-03T22:45:32.302Z,68.61
2023-02-03T22:48:00.543Z,68.21
2023-02-03T22:50:35.371Z,68.46
2023-02-03T22:53:07.287Z,72.48
2023-02-03T22:55:33.831Z,69.37
2023-02-03T22:58:00.697Z,69.09
2023-02-03T23:00:27.294Z,70.70
2023-02-03T23:02:54.736Z,69.96
2023-02-03T23:05:21.932Z,70.06
2023-02-03T23:07:49.236Z,70.72
2023-02-03T23:10:22.728Z,69.67
2023-02-03T23:12:49.916Z,70.94
2023-02-03T23:15:18.357Z,70.76
2023-02-03T23:17:45.412Z,69.95
2023-02-03T23:20:13.999Z,69.70
2023-02-03T23:22:40.570Z,69.47
2023-02-03T23:25:07.945Z,69.77
2023-02-03T23:27:34.627Z,69.33
2023-02-03T23:30:01.175Z,69.68
2023-02-03T23:32:27.744Z,70.16
2023-02-03T23:35:12.797Z,70.09
2023-02-03T23:37:39.578Z,70.57
2023-02-03T23:40:07.255Z,70.13
2023-02-03T23:42:33.922Z,69.95
2023-02-03T23:45:00.564Z,70.57
2023-02-03T23:47:27.316Z,70.20
2023-02-03T23:49:53.901Z,70.94
2023-02-03T23:52:20.448Z,70.70
2023-02-03T23:54:47.170Z,70.38
2023-02-03T23:57:13.685Z,70.21
2023-02-03T23:59:40.255Z,70.23
